createdAt,value
2022-09-24T00:01:42.684Z,90.48
2022-09-24T00:04:13.265Z,91.53
2022-09-24T00:06:44.389Z,91.41
2022-09-24T00:09:12.696Z,91.41
2022-09-24T00:11:41.243Z,91.19
2022-09-24T00:14:09.061Z,90.78
2022-09-24T00:16:37.025Z,90.57
2022-09-24T00:19:06.043Z,91.00
2022-09-24T00:21:37.467Z,90.98
2022-09-24T00:24:08.402Z,90.85
2022-09-24T00:26:51.158Z,90.99
2022-09-24T00:29:21.322Z,91.17
2022-09-24T00:31:50.778Z,91.27
2022-09-24T00:34:19.256Z,90.85
2022-09-24T00:36:48.715Z,90.86
2022-09-24T00:39:17.287Z,91.38
2022-09-24T00:41:47.841Z,91.12
2022-09-24T00:44:54.346Z,91.37
2022-09-24T00:47:34.767Z,91.67
2022-09-24T00:50:18.860Z,91.67
2022-09-24T00:52:52.627Z,91.37
2022-09-24T00:55:22.422Z,91.51
2022-09-24T00:57:53.064Z,92.00
2022-09-24T01:00:21.980Z,92.15
2022-09-24T01:02:53.269Z,92.21
2022-09-24T01:05:21.175Z,92.57
2022-09-24T01:07:50.227Z,92.88
2022-09-24T01:10:36.068Z,92.31
2022-09-24T01:13:14.967Z,92.65
2022-09-24T01:15:49.867Z,92.53
2022-09-24T01:18:28.195Z,92.65
2022-09-24T01:21:28.485Z,92.67
2022-09-24T01:24:22.910Z,92.90
2022-09-24T01:26:58.794Z,93.13
2022-09-24T01:29:52.381Z,92.75
2022-09-24T01:32:31.632Z,93.16
2022-09-24T01:35:03.380Z,93.35
2022-09-24T01:37:35.250Z,93.64
2022-09-24T01:40:05.704Z,93.49
2022-09-24T01:42:34.987Z,93.51
2022-09-24T01:45:06.417Z,93.15
2022-09-24T01:47:39.614Z,93.34
2022-09-24T01:50:08.918Z,93.71
2022-09-24T01:52:43.596Z,93.60
2022-09-24T01:55:15.706Z,93.50
2022-09-24T01:57:48.468Z,93.96
2022-09-24T02:00:20.269Z,93.68
2022-09-24T02:02:52.543Z,93.67
2022-09-24T02:05:25.200Z,93.85
2022-09-24T02:07:59.173Z,93.78
2022-09-24T02:10:32.606Z,93.95
2022-09-24T02:13:06.483Z,93.94
2022-09-24T02:15:41.254Z,94.04
2022-09-24T02:18:12.686Z,93.67
2022-09-24T02:20:44.260Z,93.80
2022-09-24T02:23:15.105Z,94.18
2022-09-24T02:25:46.985Z,94.47
2022-09-24T02:28:14.781Z,94.53
2022-09-24T02:30:50.205Z,94.48
2022-09-24T02:33:37.241Z,94.52
2022-09-24T02:36:05.583Z,94.11
2022-09-24T02:38:33.267Z,93.37
2022-09-24T02:41:01.324Z,93.53
2022-09-24T02:43:29.017Z,94.03
2022-09-24T02:45:58.044Z,93.69
2022-09-24T02:48:25.735Z,93.47
2022-09-24T02:50:53.802Z,93.78
2022-09-24T02:53:21.527Z,94.11
2022-09-24T02:55:50.620Z,94.37
2022-09-24T02:58:18.286Z,93.94
2022-09-24T03:00:46.001Z,94.27
2022-09-24T03:03:15.037Z,94.96
2022-09-24T03:05:42.888Z,95.10
2022-09-24T03:08:10.574Z,95.31
2022-09-24T03:10:38.213Z,94.82
2022-09-24T03:13:05.902Z,94.64
2022-09-24T03:15:33.718Z,94.81
2022-09-24T03:18:01.462Z,94.66
2022-09-24T03:20:30.917Z,94.49
2022-09-24T03:22:58.659Z,94.44
2022-09-24T03:25:26.845Z,94.65
2022-09-24T03:27:54.519Z,94.97
2022-09-24T03:30:39.586Z,94.74
2022-09-24T03:33:07.581Z,94.74
2022-09-24T03:35:36.603Z,95.09
2022-09-24T03:40:46.241Z,94.78
2022-09-24T03:43:14.030Z,94.39
2022-09-24T03:45:41.731Z,95.14
2022-09-24T03:48:09.575Z,95.48
2022-09-24T03:50:38.987Z,95.45
2022-09-24T03:53:06.770Z,95.31
2022-09-24T03:55:34.436Z,95.53
2022-09-24T03:58:02.320Z,95.55
2022-09-24T04:00:30.046Z,95.70
2022-09-24T04:02:57.789Z,94.93
2022-09-24T04:05:25.742Z,95.79
2022-09-24T04:07:54.774Z,94.63
2022-09-24T04:10:22.937Z,95.24
2022-09-24T04:12:50.712Z,94.59
2022-09-24T04:15:18.804Z,94.60
2022-09-24T04:17:50.877Z,94.58
2022-09-24T04:20:19.801Z,94.81
2022-09-24T04:22:47.590Z,94.63
2022-09-24T04:25:17.214Z,95.23
2022-09-24T04:27:44.933Z,95.18
2022-09-24T04:30:14.114Z,95.58
2022-09-24T04:32:42.640Z,95.13
2022-09-24T04:35:11.483Z,95.71
2022-09-24T04:37:39.342Z,95.17
2022-09-24T04:40:12.525Z,95.15
2022-09-24T04:42:42.112Z,95.34
2022-09-24T04:45:11.858Z,95.82
2022-09-24T04:47:41.904Z,95.77
2022-09-24T04:50:11.499Z,95.65
2022-09-24T04:52:39.879Z,95.87
2022-09-24T04:55:08.249Z,95.51
2022-09-24T04:57:36.452Z,95.61
2022-09-24T05:00:07.714Z,95.57
2022-09-24T05:02:35.564Z,95.32
2022-09-24T05:05:03.174Z,95.03
2022-09-24T05:07:30.697Z,94.94
2022-09-24T05:09:58.296Z,95.45
2022-09-24T05:12:26.070Z,95.09
2022-09-24T05:14:53.667Z,96.12
2022-09-24T05:17:22.628Z,95.71
2022-09-24T05:19:50.157Z,95.55
2022-09-24T05:22:17.730Z,95.16
2022-09-24T05:24:45.330Z,95.29
2022-09-24T05:27:11.992Z,96.30
2022-09-24T05:29:40.502Z,95.61
2022-09-24T05:32:09.589Z,95.37
2022-09-24T05:34:38.574Z,96.17
2022-09-24T05:37:06.140Z,96.22
2022-09-24T05:39:34.439Z,96.10
2022-09-24T05:42:03.657Z,95.93
2022-09-24T05:44:31.500Z,96.13
2022-09-24T05:46:59.743Z,95.46
2022-09-24T05:49:27.463Z,95.51
2022-09-24T05:51:56.820Z,95.30
2022-09-24T05:54:24.573Z,94.54
2022-09-24T05:56:52.117Z,94.51
2022-09-24T05:59:19.834Z,95.14
2022-09-24T06:01:48.103Z,95.21
2022-09-24T06:04:16.056Z,95.00
2022-09-24T06:06:43.890Z,94.40
2022-09-24T06:09:13.607Z,94.30
2022-09-24T06:11:42.060Z,94.11
2022-09-24T06:14:09.812Z,93.51
2022-09-24T06:16:37.768Z,93.21
2022-09-24T06:19:05.621Z,92.64
2022-09-24T06:21:33.485Z,92.98
2022-09-24T06:24:01.331Z,92.62
2022-09-24T06:26:30.992Z,92.77
2022-09-24T06:29:04.405Z,92.27
2022-09-24T06:31:32.886Z,93.03
2022-09-24T06:34:02.567Z,92.41
2022-09-24T06:36:30.194Z,92.53
2022-09-24T06:38:58.558Z,92.04
2022-09-24T06:41:26.260Z,90.68
2022-09-24T06:43:56.490Z,91.40
2022-09-24T06:46:25.780Z,90.84
2022-09-24T06:48:54.797Z,90.14
2022-09-24T06:51:22.676Z,90.28
2022-09-24T06:53:52.401Z,90.38
2022-09-24T06:56:20.091Z,89.31
2022-09-24T06:58:47.862Z,89.25
2022-09-24T07:01:16.987Z,89.21
2022-09-24T07:03:44.790Z,89.13
2022-09-24T07:06:12.398Z,88.81
2022-09-24T07:08:40.157Z,88.34
2022-09-24T07:11:08.922Z,88.14
2022-09-24T07:13:36.705Z,87.88
2022-09-24T07:16:04.459Z,88.19
2022-09-24T07:18:33.587Z,87.77
2022-09-24T07:21:01.269Z,87.62
2022-09-24T07:23:28.931Z,87.12
2022-09-24T07:25:57.704Z,87.01
2022-09-24T07:28:25.525Z,87.23
2022-09-24T07:30:58.210Z,86.34
2022-09-24T07:33:25.968Z,86.05
2022-09-24T07:35:55.065Z,85.21
2022-09-24T07:38:23.164Z,84.62
2022-09-24T07:40:51.010Z,84.74
2022-09-24T07:43:18.764Z,84.44
2022-09-24T07:45:46.622Z,84.62
2022-09-24T07:48:15.659Z,84.88
2022-09-24T07:50:43.821Z,84.58
2022-09-24T07:53:13.826Z,84.79
2022-09-24T07:55:41.915Z,84.84
2022-09-24T07:58:12.672Z,84.42
2022-09-24T08:00:40.422Z,84.45
2022-09-24T08:03:08.367Z,83.73
2022-09-24T08:05:36.097Z,83.76
2022-09-24T08:08:03.809Z,84.11
2022-09-24T08:10:32.932Z,84.49
2022-09-24T08:13:02.679Z,84.21
2022-09-24T08:15:30.463Z,84.23
2022-09-24T08:18:01.987Z,83.97
2022-09-24T08:20:29.762Z,84.05
2022-09-24T08:23:02.136Z,84.54
2022-09-24T08:25:31.268Z,84.10
2022-09-24T08:28:04.039Z,83.73
2022-09-24T08:30:31.924Z,84.30
2022-09-24T08:32:59.621Z,84.15
2022-09-24T08:35:27.718Z,83.51
2022-09-24T08:37:55.761Z,83.82
2022-09-24T08:40:27.125Z,83.66
2022-09-24T08:43:07.478Z,83.60
2022-09-24T08:46:03.019Z,83.20
2022-09-24T08:48:34.326Z,82.36
2022-09-24T08:51:06.621Z,81.80
2022-09-24T08:53:45.896Z,81.28
2022-09-24T08:56:24.875Z,80.82
2022-09-24T08:58:58.196Z,80.81
2022-09-24T09:01:37.019Z,80.98
2022-09-24T09:04:19.898Z,81.37
2022-09-24T09:06:57.024Z,80.59
2022-09-24T09:09:30.034Z,79.89
2022-09-24T09:12:02.013Z,79.50
2022-09-24T09:14:42.247Z,79.25
2022-09-24T09:17:21.784Z,79.35
2022-09-24T09:19:56.109Z,79.99
2022-09-24T09:22:29.099Z,80.28
2022-09-24T09:25:04.022Z,79.80
2022-09-24T09:27:32.982Z,79.76
2022-09-24T09:30:09.257Z,79.75
2022-09-24T09:32:58.623Z,79.83
2022-09-24T09:35:34.122Z,78.99
2022-09-24T09:38:10.671Z,77.47
2022-09-24T09:40:46.243Z,76.50
2022-09-24T09:43:15.505Z,75.36
2022-09-24T09:45:49.336Z,75.24
2022-09-24T09:48:21.407Z,73.82
2022-09-24T09:50:50.453Z,74.09
2022-09-24T09:53:23.113Z,73.85
2022-09-24T09:55:56.450Z,73.15
2022-09-24T09:58:25.806Z,73.66
2022-09-24T10:00:54.260Z,72.54
2022-09-24T10:03:25.848Z,72.92
2022-09-24T10:05:57.206Z,72.36
2022-09-24T10:08:26.176Z,71.46
2022-09-24T10:10:56.201Z,72.42
2022-09-24T10:13:24.333Z,73.21
2022-09-24T10:15:53.664Z,72.37
2022-09-24T10:18:31.111Z,71.31
2022-09-24T10:21:02.522Z,71.31
2022-09-24T10:23:36.705Z,72.02
2022-09-24T10:26:06.072Z,71.43
2022-09-24T10:28:52.544Z,70.74
2022-09-24T10:31:23.618Z,70.97
2022-09-24T10:33:55.781Z,70.41
2022-09-24T10:36:25.258Z,71.31
2022-09-24T10:39:03.543Z,71.66
2022-09-24T10:41:32.734Z,72.83
2022-09-24T10:44:05.366Z,73.47
2022-09-24T10:46:52.102Z,75.20
2022-09-24T10:49:34.945Z,74.55
2022-09-24T10:52:10.100Z,74.09
2022-09-24T10:54:51.321Z,74.40
2022-09-24T10:57:29.677Z,70.06
2022-09-24T11:00:05.420Z,70.46
2022-09-24T11:03:09.574Z,68.49
2022-09-24T11:05:43.239Z,66.56
2022-09-24T11:08:25.480Z,65.77
2022-09-24T11:11:16.148Z,64.77
2022-09-24T11:13:55.083Z,65.46
2022-09-24T11:16:49.721Z,65.26
2022-09-24T11:19:34.425Z,65.48
2022-09-24T11:22:12.468Z,64.90
2022-09-24T11:24:54.972Z,64.04
2022-09-24T11:27:42.204Z,64.29
2022-09-24T11:30:13.567Z,62.62
2022-09-24T11:33:01.223Z,62.07
2022-09-24T11:35:42.416Z,62.61
2022-09-24T11:38:17.942Z,60.41
2022-09-24T11:41:09.656Z,60.14
2022-09-24T11:44:00.814Z,59.21
2022-09-24T11:46:45.086Z,59.18
2022-09-24T11:49:40.920Z,59.27
2022-09-24T11:52:15.253Z,59.30
2022-09-24T11:54:51.861Z,58.27
2022-09-24T11:57:25.058Z,58.90
2022-09-24T12:00:04.738Z,59.42
2022-09-24T12:02:36.335Z,58.79
2022-09-24T12:05:08.129Z,58.74
2022-09-24T12:07:43.747Z,59.95
2022-09-24T12:10:29.640Z,59.61
2022-09-24T12:13:05.714Z,60.38
2022-09-24T12:15:44.172Z,60.45
2022-09-24T12:18:17.525Z,60.60
2022-09-24T12:20:49.619Z,59.87
2022-09-24T12:23:22.553Z,59.88
2022-09-24T12:25:53.577Z,60.00
2022-09-24T12:28:40.145Z,59.79
2022-09-24T12:31:33.187Z,59.81
2022-09-24T12:34:08.004Z,60.00
2022-09-24T12:36:57.114Z,60.39
2022-09-24T12:39:29.217Z,61.17
2022-09-24T12:42:03.029Z,61.41
2022-09-24T12:44:38.631Z,61.96
2022-09-24T12:47:16.243Z,61.64
2022-09-24T12:49:51.335Z,61.60
2022-09-24T12:52:24.848Z,61.93
2022-09-24T12:54:59.040Z,63.30
2022-09-24T12:57:33.668Z,63.26
2022-09-24T13:00:03.069Z,62.66
2022-09-24T13:02:43.985Z,61.40
2022-09-24T13:05:28.200Z,60.77
2022-09-24T13:07:59.207Z,59.37
2022-09-24T13:10:29.834Z,58.81
2022-09-24T13:13:00.797Z,58.30
2022-09-24T13:15:35.110Z,56.77
2022-09-24T13:18:19.270Z,56.19
2022-09-24T13:21:00.117Z,53.83
2022-09-24T13:23:35.310Z,50.96
2022-09-24T13:26:05.398Z,48.65
2022-09-24T13:28:51.266Z,47.75
2022-09-24T13:31:27.245Z,48.38
2022-09-24T13:33:58.220Z,48.49
2022-09-24T13:36:34.570Z,48.35
2022-09-24T13:39:07.476Z,45.77
2022-09-24T13:41:45.967Z,43.89
2022-09-24T13:44:21.602Z,44.70
2022-09-24T13:46:55.030Z,45.88
2022-09-24T13:49:24.753Z,47.41
2022-09-24T13:52:00.872Z,49.67
2022-09-24T13:54:34.845Z,50.94
2022-09-24T13:57:13.053Z,51.58
2022-09-24T13:59:42.306Z,52.51
2022-09-24T14:02:25.586Z,54.01
2022-09-24T14:04:58.530Z,53.21
2022-09-24T14:07:28.519Z,53.95
2022-09-24T14:10:03.822Z,55.14
2022-09-24T14:12:31.719Z,56.15
2022-09-24T14:15:00.997Z,56.57
2022-09-24T14:17:28.809Z,57.56
2022-09-24T14:19:57.810Z,58.67
2022-09-24T14:22:31.315Z,58.56
2022-09-24T14:25:04.160Z,59.23
2022-09-24T14:27:33.301Z,58.88
2022-09-24T14:30:05.118Z,60.15
2022-09-24T14:32:35.717Z,60.99
2022-09-24T14:35:08.786Z,61.90
2022-09-24T14:37:39.686Z,63.11
2022-09-24T14:40:13.638Z,63.49
2022-09-24T14:42:43.960Z,64.02
2022-09-24T14:45:20.767Z,64.05
2022-09-24T14:47:48.837Z,64.59
2022-09-24T14:50:35.394Z,64.80
2022-09-24T14:53:12.413Z,64.55
2022-09-24T14:55:41.628Z,63.70
2022-09-24T14:58:27.163Z,62.28
2022-09-24T15:00:58.235Z,61.31
2022-09-24T15:03:33.365Z,60.67
2022-09-24T15:06:14.606Z,60.86
2022-09-24T15:08:43.198Z,61.49
2022-09-24T15:11:17.872Z,62.43
2022-09-24T15:13:45.832Z,62.46
2022-09-24T15:16:22.504Z,63.03
2022-09-24T15:18:59.877Z,63.09
2022-09-24T15:21:27.863Z,64.23
2022-09-24T15:23:56.966Z,63.84
2022-09-24T15:26:29.302Z,64.86
2022-09-24T15:28:58.169Z,65.49
2022-09-24T15:31:27.436Z,65.86
2022-09-24T15:33:56.005Z,66.72
2022-09-24T15:36:24.344Z,66.94
2022-09-24T15:38:53.339Z,68.35
2022-09-24T15:41:21.117Z,68.63
2022-09-24T15:43:48.866Z,69.34
2022-09-24T15:46:17.071Z,69.85
2022-09-24T15:48:46.715Z,70.18
2022-09-24T15:51:18.327Z,70.34
2022-09-24T15:53:46.234Z,71.02
2022-09-24T15:56:15.166Z,71.41
2022-09-24T15:58:42.917Z,72.08
2022-09-24T16:01:16.717Z,72.51
2022-09-24T16:03:46.092Z,72.84
2022-09-24T16:06:14.309Z,73.17
2022-09-24T16:08:43.703Z,73.30
2022-09-24T16:11:11.406Z,73.83
2022-09-24T16:13:39.023Z,74.26
2022-09-24T16:16:08.223Z,75.03
2022-09-24T16:18:38.046Z,75.36
2022-09-24T16:21:08.335Z,75.77
2022-09-24T16:23:36.100Z,75.95
2022-09-24T16:26:03.794Z,76.35
2022-09-24T16:28:31.962Z,76.94
2022-09-24T16:30:59.724Z,78.45
2022-09-24T16:33:27.484Z,78.86
2022-09-24T16:35:55.243Z,79.85
2022-09-24T16:38:24.349Z,80.97
2022-09-24T16:41:00.712Z,81.81
2022-09-24T16:43:28.853Z,81.88
2022-09-24T16:46:01.375Z,81.86
2022-09-24T16:48:29.090Z,81.64
2022-09-24T16:51:03.237Z,82.19
2022-09-24T16:53:34.236Z,82.70
2022-09-24T16:56:06.650Z,83.16
2022-09-24T16:58:34.466Z,83.14
2022-09-24T17:01:05.285Z,83.86
2022-09-24T17:03:33.344Z,84.18
2022-09-24T17:06:01.209Z,84.97
2022-09-24T17:08:49.319Z,85.20
2022-09-24T17:11:17.972Z,85.68
2022-09-24T17:13:47.406Z,85.85
2022-09-24T17:16:15.672Z,86.39
2022-09-24T17:18:43.417Z,86.74
2022-09-24T17:21:13.388Z,87.00
2022-09-24T17:23:41.462Z,86.97
2022-09-24T17:26:11.489Z,87.91
2022-09-24T17:28:42.482Z,87.92
2022-09-24T17:31:12.633Z,88.07
2022-09-24T17:33:43.755Z,88.51
2022-09-24T17:36:14.456Z,89.19
2022-09-24T17:38:42.810Z,89.60
2022-09-24T17:41:12.422Z,89.09
2022-09-24T17:43:42.878Z,89.30
2022-09-24T17:46:14.458Z,89.73
2022-09-24T17:48:45.561Z,89.39
2022-09-24T17:51:16.216Z,89.60
2022-09-24T17:53:44.098Z,89.85
2022-09-24T17:56:14.917Z,91.66
2022-09-24T17:58:47.850Z,92.45
2022-09-24T18:01:18.963Z,92.86
2022-09-24T18:03:48.737Z,93.40
2022-09-24T18:06:16.453Z,93.54
2022-09-24T18:08:45.955Z,93.75
2022-09-24T18:11:15.858Z,95.41
2022-09-24T18:13:45.518Z,95.92
2022-09-24T18:16:14.913Z,95.90
2022-09-24T18:18:44.403Z,96.30
2022-09-24T18:21:14.408Z,96.56
2022-09-24T18:23:42.570Z,96.19
2022-09-24T18:26:11.888Z,95.71
2022-09-24T18:28:40.536Z,96.32
2022-09-24T18:31:11.387Z,96.14
2022-09-24T18:33:40.986Z,95.06
2022-09-24T18:36:10.859Z,93.51
2022-09-24T18:38:38.820Z,93.69
2022-09-24T18:41:09.756Z,93.70
2022-09-24T18:43:37.682Z,93.74
2022-09-24T18:46:06.429Z,93.92
2022-09-24T18:48:36.076Z,94.11
2022-09-24T18:51:05.062Z,94.01
2022-09-24T18:53:33.095Z,94.69
2022-09-24T18:56:05.432Z,95.30
2022-09-24T18:58:33.038Z,96.22
2022-09-24T19:01:01.907Z,96.14
2022-09-24T19:03:30.471Z,96.52
2022-09-24T19:06:02.098Z,96.47
2022-09-24T19:08:32.137Z,96.45
2022-09-24T19:11:04.379Z,96.39
2022-09-24T19:13:32.514Z,96.25
2022-09-24T19:16:05.586Z,91.84
2022-09-24T19:18:34.254Z,92.01
2022-09-24T19:21:06.283Z,91.43
2022-09-24T19:23:37.470Z,92.58
2022-09-24T19:26:06.624Z,93.07
2022-09-24T19:28:34.931Z,93.93
2022-09-24T19:31:03.081Z,94.52
2022-09-24T19:33:30.821Z,94.61
2022-09-24T19:36:01.750Z,94.60
2022-09-24T19:38:32.394Z,95.17
2022-09-24T19:41:01.572Z,95.45
2022-09-24T19:43:30.963Z,95.24
2022-09-24T19:46:00.329Z,95.77
2022-09-24T19:48:29.810Z,96.38
2022-09-24T19:51:00.783Z,96.33
2022-09-24T19:53:31.588Z,96.73
2022-09-24T19:55:59.615Z,96.87
2022-09-24T19:58:28.034Z,97.50
2022-09-24T20:00:56.015Z,97.31
2022-09-24T20:03:25.949Z,97.65
2022-09-24T20:05:53.794Z,97.41
2022-09-24T20:08:23.905Z,97.58
2022-09-24T20:10:52.989Z,97.83
2022-09-24T20:13:20.796Z,98.01
2022-09-24T20:15:48.767Z,97.68
2022-09-24T20:18:16.500Z,98.35
2022-09-24T20:20:44.236Z,98.06
2022-09-24T20:23:12.024Z,98.18
2022-09-24T20:25:57.750Z,98.14
2022-09-24T20:28:26.817Z,98.00
2022-09-24T20:30:54.764Z,97.99
2022-09-24T20:33:22.546Z,97.93
2022-09-24T20:35:50.241Z,98.13
2022-09-24T20:38:18.699Z,98.33
2022-09-24T20:40:46.465Z,98.65
2022-09-24T20:43:14.326Z,98.74
2022-09-24T20:45:43.352Z,98.45
2022-09-24T20:48:12.074Z,98.52
2022-09-24T20:50:40.133Z,98.45
2022-09-24T20:53:08.040Z,98.45
2022-09-24T20:55:35.897Z,98.46
2022-09-24T20:58:03.576Z,98.50
2022-09-24T21:00:35.809Z,99.13
2022-09-24T21:03:25.548Z,99.38
2022-09-24T21:05:53.222Z,99.37
2022-09-24T21:08:20.923Z,99.46
2022-09-24T21:10:48.656Z,99.70
2022-09-24T21:13:16.326Z,99.69
2022-09-24T21:15:44.083Z,99.12
2022-09-24T21:18:22.678Z,99.48
2022-09-24T21:20:51.285Z,99.59
2022-09-24T21:23:19.042Z,99.73
2022-09-24T21:25:54.347Z,99.54
2022-09-24T21:28:22.668Z,99.42
2022-09-24T21:30:57.972Z,100.00
2022-09-24T21:33:27.110Z,100.00
2022-09-24T21:35:57.440Z,100.00
2022-09-24T21:38:25.126Z,100.00
2022-09-24T21:40:54.435Z,100.00
2022-09-24T21:43:23.562Z,100.00
2022-09-24T21:45:52.424Z,100.00
2022-09-24T21:48:20.316Z,100.00
2022-09-24T21:50:49.390Z,100.00
2022-09-24T21:53:17.075Z,100.00
2022-09-24T21:55:48.367Z,100.00
2022-09-24T21:58:16.280Z,100.00
2022-09-24T22:00:43.984Z,100.00
2022-09-24T22:03:12.310Z,100.00
2022-09-24T22:05:42.931Z,100.00
2022-09-24T22:08:12.998Z,100.00
2022-09-24T22:10:41.699Z,100.00
2022-09-24T22:13:11.035Z,100.00
2022-09-24T22:15:38.849Z,100.00
2022-09-24T22:18:06.685Z,100.00
2022-09-24T22:20:34.348Z,100.00
2022-09-24T22:23:02.000Z,100.00
2022-09-24T22:25:31.290Z,100.00
2022-09-24T22:27:58.938Z,100.00
2022-09-24T22:30:26.777Z,100.00
2022-09-24T22:32:54.657Z,100.00
2022-09-24T22:35:43.062Z,100.00
2022-09-24T22:38:11.229Z,100.00
2022-09-24T22:40:40.507Z,100.00
2022-09-24T22:43:08.206Z,100.00
2022-09-24T22:45:35.851Z,100.00
2022-09-24T22:48:03.583Z,100.00
2022-09-24T22:50:31.247Z,100.00
2022-09-24T22:52:58.950Z,100.00
2022-09-24T22:55:26.657Z,100.00
2022-09-24T22:57:56.020Z,100.00
2022-09-24T23:00:23.691Z,100.00
2022-09-24T23:02:51.448Z,100.00
2022-09-24T23:05:19.221Z,100.00
2022-09-24T23:07:46.966Z,100.00
2022-09-24T23:10:14.689Z,100.00
2022-09-24T23:12:42.374Z,100.00
2022-09-24T23:15:11.967Z,100.00
2022-09-24T23:17:39.741Z,100.00
2022-09-24T23:20:09.311Z,100.00
2022-09-24T23:22:36.989Z,100.00
2022-09-24T23:25:05.395Z,100.00
2022-09-24T23:27:33.222Z,100.00
2022-09-24T23:30:01.452Z,100.00
2022-09-24T23:32:31.263Z,100.00
2022-09-24T23:34:58.990Z,100.00
2022-09-24T23:37:26.666Z,100.00
2022-09-24T23:39:54.339Z,100.00
2022-09-24T23:42:22.003Z,100.00
2022-09-24T23:44:49.644Z,100.00
2022-09-24T23:47:18.053Z,100.00
2022-09-24T23:49:47.043Z,100.00
2022-09-24T23:52:14.708Z,100.00
2022-09-24T23:54:42.956Z,100.00
2022-09-24T23:57:11.201Z,100.00
2022-09-24T23:59:39.142Z,100.00
